Time;durP1;ratioP1;P1;durP2;ratioP2;P2;SDS_P1;SDS_P2;PMS_P1;PMS_P2;Temp;Humidity;BMP_temperature;BMP_pressure;BME280_temperature;BME280_humidity;BME280_pressure;Samples;Min_cycle;Max_cycle;Signal;HPM_P1;HPM_P2
2023/03/22 00:01:56;;;;;;;13.00;5.15;;;;;;;9.26;91.84;100937.28;4880959;29;20032;-92
2023/03/22 00:04:23;;;;;;;8.52;4.75;;;;;;;9.24;91.88;100939.84;4892160;29;20055;-91
2023/03/22 00:06:49;;;;;;;10.43;5.05;;;;;;;9.23;91.83;100938.06;4891409;29;20533;-93
2023/03/22 00:09:16;;;;;;;11.20;4.57;;;;;;;9.20;91.67;100933.66;4891701;29;20068;-90
2023/03/22 00:11:42;;;;;;;11.00;4.70;;;;;;;9.16;91.63;100924.00;4892593;29;20104;-92
2023/03/22 00:14:07;;;;;;;9.02;4.30;;;;;;;9.10;91.18;100923.81;4883633;29;20044;-92
2023/03/22 00:16:33;;;;;;;9.48;5.40;;;;;;;9.07;91.63;100926.31;4881278;29;20020;-92
2023/03/22 00:19:01;;;;;;;8.80;4.18;;;;;;;9.00;91.63;100929.56;4878976;29;20473;-91
2023/03/22 00:21:26;;;;;;;10.82;4.30;;;;;;;8.92;91.48;100920.63;4878986;29;20048;-91
2023/03/22 00:23:52;;;;;;;9.57;4.20;;;;;;;8.85;92.24;100920.44;4876955;29;20525;-92
2023/03/22 00:26:17;;;;;;;13.38;4.70;;;;;;;8.83;92.89;100916.03;4889076;29;21008;-92
2023/03/22 00:28:43;;;;;;;11.23;4.35;;;;;;;8.83;92.95;100916.03;4890797;29;20117;-92
2023/03/22 00:31:09;;;;;;;9.55;4.30;;;;;;;8.81;93.04;100913.38;4878332;29;20032;-92
2023/03/22 00:33:35;;;;;;;11.07;4.30;;;;;;;8.78;93.04;100908.09;4878825;29;20039;-92
2023/03/22 00:36:03;;;;;;;10.73;4.70;;;;;;;8.76;93.24;100899.38;4878570;29;20487;-91
2023/03/22 00:38:35;;;;;;;9.57;4.07;;;;;;;8.74;93.07;100890.63;4872800;29;20028;-92
2023/03/22 00:41:15;;;;;;;14.10;4.68;;;;;;;8.73;93.57;100899.25;4892588;29;20016;-92
2023/03/22 00:43:41;;;;;;;10.35;4.18;;;;;;;8.68;93.73;100887.84;4878860;29;20087;-91
2023/03/22 00:46:07;;;;;;;14.57;4.97;;;;;;;8.65;94.19;100883.44;4889080;29;20032;-91
2023/03/22 00:48:35;;;;;;;12.20;5.57;;;;;;;8.63;94.61;100885.13;4889426;29;20091;-92
2023/03/22 00:51:01;;;;;;;11.05;5.05;;;;;;;8.66;94.88;100879.13;4878277;29;20116;-92
2023/03/22 00:53:31;;;;;;;13.45;5.38;;;;;;;8.66;94.88;100876.50;4890260;29;20033;-92
2023/03/22 00:55:58;;;;;;;12.93;5.47;;;;;;;8.67;95.37;100863.56;4877395;29;20025;-91
2023/03/22 00:58:26;;;;;;;11.55;5.45;;;;;;;8.67;95.43;100866.16;4878630;29;20085;-91
2023/03/22 01:00:57;;;;;;;15.13;6.00;;;;;;;8.69;95.90;100866.25;4879170;29;20087;-92
2023/03/22 01:03:23;;;;;;;12.73;6.30;;;;;;;8.73;96.17;100862.88;4890287;29;20017;-91
2023/03/22 01:05:55;;;;;;;15.65;6.03;;;;;;;8.75;96.11;100863.84;4877741;29;20032;-92
2023/03/22 01:08:21;;;;;;;16.05;6.88;;;;;;;8.77;96.39;100862.16;4879133;29;20062;-91
2023/03/22 01:10:48;;;;;;;13.85;6.57;;;;;;;8.78;96.63;100858.72;4878471;29;20236;-91
2023/03/22 01:13:13;;;;;;;17.63;7.57;;;;;;;8.77;96.65;100849.16;4878063;29;20056;-90
2023/03/22 01:15:40;;;;;;;15.63;7.20;;;;;;;8.76;97.09;100847.44;4879415;29;20038;-89
2023/03/22 01:18:08;;;;;;;15.82;7.40;;;;;;;8.80;97.40;100844.06;4890121;29;20033;-90
2023/03/22 01:20:34;;;;;;;17.70;8.75;;;;;;;8.83;97.94;100833.75;4875536;29;20035;-90
2023/03/22 01:23:00;;;;;;;16.17;8.07;;;;;;;8.88;98.25;100836.53;4889251;29;20030;-90
2023/03/22 01:25:25;;;;;;;21.40;9.32;;;;;;;8.91;97.91;100825.31;4887940;29;20024;-91
2023/03/22 01:27:53;;;;;;;18.65;7.93;;;;;;;8.92;98.33;100819.28;4879746;29;20032;-91
2023/03/22 01:30:18;;;;;;;18.77;8.95;;;;;;;8.92;98.62;100808.91;4890195;29;20039;-90
2023/03/22 01:32:43;;;;;;;16.95;9.00;;;;;;;8.94;98.66;100807.25;4878249;29;20032;-90
2023/03/22 01:35:09;;;;;;;17.13;8.88;;;;;;;8.94;99.24;100800.31;4879955;29;20043;-90
2023/03/22 01:37:35;;;;;;;18.92;9.15;;;;;;;8.96;99.59;100789.97;4879022;29;20044;-91
2023/03/22 01:40:05;;;;;;;20.85;10.35;;;;;;;8.99;100.00;100793.56;4890569;29;20029;-91
2023/03/22 01:42:31;;;;;;;18.58;9.85;;;;;;;9.01;100.00;100789.25;4890433;29;20093;-91
2023/03/22 01:45:15;;;;;;;18.73;9.65;;;;;;;9.05;100.00;100783.31;4879331;29;20028;-91
2023/03/22 01:47:44;;;;;;;22.27;10.15;;;;;;;9.09;100.00;100783.41;4889971;29;20491;-92
2023/03/22 01:50:10;;;;;;;20.27;10.77;;;;;;;9.12;100.00;100773.09;4891408;29;20036;-91
2023/03/22 01:52:40;;;;;;;21.38;10.30;;;;;;;9.15;100.00;100768.88;4879069;29;20984;-90
2023/03/22 01:55:08;;;;;;;21.85;10.98;;;;;;;9.19;100.00;100757.69;4894480;29;20083;-90
2023/03/22 01:57:37;;;;;;;19.70;10.48;;;;;;;9.22;100.00;100756.91;4883370;29;20032;-90
2023/03/22 02:00:14;;;;;;;24.02;10.88;;;;;;;9.26;100.00;100761.34;4900128;29;20551;-90
2023/03/22 02:02:41;;;;;;;21.20;10.68;;;;;;;9.31;100.00;100751.97;4891188;29;20067;-91
2023/03/22 02:05:07;;;;;;;21.67;12.20;;;;;;;9.33;100.00;100744.22;4881787;29;20032;-90
2023/03/22 02:07:35;;;;;;;22.35;12.00;;;;;;;9.37;100.00;100752.13;4893978;29;20092;-91
2023/03/22 02:10:00;;;;;;;22.45;11.77;;;;;;;9.41;100.00;100737.47;4898993;29;20040;-91
2023/03/22 02:12:47;;;;;;;21.75;12.10;;;;;;;9.42;100.00;100746.19;4885145;29;20043;-90
2023/03/22 02:15:28;;;;;;;21.60;12.13;;;;;;;9.40;100.00;100739.22;4897905;29;20131;-91
2023/03/22 02:18:23;;;;;;;24.05;11.93;;;;;;;9.45;100.00;100741.06;4882854;29;20075;-90
2023/03/22 02:21:22;;;;;;;21.00;11.63;;;;;;;9.46;100.00;100725.50;4899986;29;20036;-91
2023/03/22 02:24:22;;;;;;;24.10;12.38;;;;;;;9.51;100.00;100725.59;4899326;29;20111;-90
2023/03/22 02:27:19;;;;;;;23.50;12.50;;;;;;;9.51;100.00;100731.69;4883460;29;20622;-90
2023/03/22 02:29:53;;;;;;;21.00;11.32;;;;;;;9.51;100.00;100729.06;4884265;29;20039;-90
2023/03/22 02:32:43;;;;;;;23.88;12.35;;;;;;;9.51;100.00;100723.88;4882613;29;20119;-91
2023/03/22 02:35:44;;;;;;;21.98;11.52;;;;;;;9.51;100.00;100710.88;4900165;29;20028;-91
2023/03/22 02:38:19;;;;;;;20.35;11.63;;;;;;;9.52;100.00;100712.66;4875785;29;20502;-91
2023/03/22 02:41:03;;;;;;;20.70;11.13;;;;;;;9.53;100.00;100714.41;4898986;29;20052;-91
2023/03/22 02:43:45;;;;;;;22.10;12.27;;;;;;;9.53;100.00;100719.63;4883098;29;20096;-91
2023/03/22 02:46:33;;;;;;;21.77;10.90;;;;;;;9.54;100.00;100715.28;4884520;29;20064;-90
2023/03/22 02:49:10;;;;;;;20.05;10.82;;;;;;;9.55;99.84;100707.50;4896207;29;20494;-90
2023/03/22 02:51:50;;;;;;;22.80;11.43;;;;;;;9.57;99.77;100713.66;4883978;29;20140;-91
2023/03/22 02:54:27;;;;;;;23.80;10.88;;;;;;;9.59;99.73;100711.09;4893819;29;20055;-91
2023/03/22 02:57:07;;;;;;;21.35;10.75;;;;;;;9.63;99.26;100715.53;4900789;29;20123;-91
2023/03/22 02:59:37;;;;;;;19.30;10.15;;;;;;;9.64;99.48;100691.25;4902220;29;20859;-90
2023/03/22 03:02:04;;;;;;;23.67;11.07;;;;;;;9.64;98.97;100685.19;4883524;29;20060;-91
2023/03/22 03:04:34;;;;;;;20.38;10.38;;;;;;;9.61;99.08;100696.38;4900154;29;20077;-91
2023/03/22 03:07:13;;;;;;;19.75;10.15;;;;;;;9.61;99.02;100692.91;4900994;29;20023;-91
2023/03/22 03:09:41;;;;;;;15.90;9.15;;;;;;;9.57;98.91;100689.34;4897115;29;20459;-90
2023/03/22 03:12:29;;;;;;;20.23;9.27;;;;;;;9.58;99.05;100686.78;4882916;29;20067;-91
2023/03/22 03:14:55;;;;;;;16.58;8.57;;;;;;;9.56;98.51;100693.69;4882657;29;20103;-91
2023/03/22 03:17:37;;;;;;;20.60;9.40;;;;;;;9.57;98.59;100690.25;4881066;29;20028;-91
2023/03/22 03:20:20;;;;;;;15.48;8.02;;;;;;;9.58;98.56;100680.72;4876087;29;20115;-91
2023/03/22 03:23:17;;;;;;;16.73;8.57;;;;;;;9.57;98.21;100678.94;4881645;29;20032;-91
2023/03/22 03:25:42;;;;;;;18.83;8.40;;;;;;;9.54;98.29;100674.56;4879001;29;20084;-90
2023/03/22 03:28:42;;;;;;;18.73;8.80;;;;;;;9.53;98.21;100680.59;4880551;29;20044;-91
2023/03/22 03:31:18;;;;;;;;;;;;;;;9.59;97.72;100679.88;4892158;29;20033;-91
2023/03/22 03:33:55;;;;;;;17.80;7.35;;;;;;;9.58;97.59;100678.97;4879959;29;20844;-91
2023/03/22 03:36:25;;;;;;;15.88;8.05;;;;;;;9.56;97.54;100682.41;4883090;29;20032;-90
2023/03/22 03:38:53;;;;;;;15.95;7.85;;;;;;;9.54;97.60;100674.56;4892212;29;20024;-90
2023/03/22 03:41:28;;;;;;;13.98;7.10;;;;;;;9.53;97.69;100680.59;4874382;29;20020;-91
2023/03/22 03:43:56;;;;;;;13.55;7.22;;;;;;;9.54;97.62;100673.66;4878993;29;20056;-91
2023/03/22 03:46:21;;;;;;;16.95;7.00;;;;;;;9.53;97.48;100677.09;4873684;29;20028;-91
2023/03/22 03:48:50;;;;;;;13.88;7.13;;;;;;;9.53;97.10;100674.50;4879805;29;20059;-90
2023/03/22 03:51:15;;;;;;;14.05;6.70;;;;;;;9.55;96.84;100678.91;4881334;29;20069;-91
2023/03/22 03:53:41;;;;;;;13.45;6.57;;;;;;;9.53;96.82;100688.41;4890774;29;20056;-90
2023/03/22 03:56:07;;;;;;;13.77;6.75;;;;;;;9.52;96.75;100696.16;4891399;29;20166;-92
2023/03/22 03:58:32;;;;;;;14.57;6.55;;;;;;;9.51;96.55;100690.06;4890438;29;20036;-91
2023/03/22 04:00:57;;;;;;;15.82;6.75;;;;;;;9.51;96.53;100695.25;4878646;29;20081;-91
2023/03/22 04:03:23;;;;;;;13.82;6.43;;;;;;;9.49;96.28;100686.56;4880463;29;20024;-91
2023/03/22 04:05:48;;;;;;;12.32;6.28;;;;;;;9.47;96.37;100683.06;4878385;29;20083;-90
2023/03/22 04:08:14;;;;;;;13.25;6.18;;;;;;;9.46;96.21;100691.69;4878828;29;20040;-90
2023/03/22 04:10:39;;;;;;;13.70;6.40;;;;;;;9.42;96.28;100683.78;4892844;29;20052;-90
2023/03/22 04:13:05;;;;;;;14.98;6.40;;;;;;;9.40;96.47;100682.00;4878254;29;20544;-91
2023/03/22 04:15:33;;;;;;;16.08;6.65;;;;;;;9.39;96.33;100684.56;4889125;29;20044;-91
2023/03/22 04:18:01;;;;;;;11.40;5.67;;;;;;;9.38;96.49;100680.19;4891160;29;20032;-91
2023/03/22 04:20:28;;;;;;;15.82;5.65;;;;;;;9.36;96.45;100684.50;4878994;29;20872;-90
2023/03/22 04:22:54;;;;;;;13.98;5.88;;;;;;;9.33;96.49;100674.88;4891023;29;20136;-91
2023/03/22 04:25:21;;;;;;;14.43;6.00;;;;;;;9.32;96.60;100673.13;4891486;29;20119;-91
2023/03/22 04:27:49;;;;;;;10.85;5.35;;;;;;;9.31;96.46;100670.47;4875439;29;20052;-91
2023/03/22 04:30:18;;;;;;;17.48;6.10;;;;;;;9.31;96.74;100670.47;4879850;29;20174;-90
2023/03/22 04:32:46;;;;;;;12.40;5.70;;;;;;;9.29;96.54;100662.63;4891481;29;20021;-90
2023/03/22 04:35:12;;;;;;;11.48;5.20;;;;;;;9.27;96.58;100668.63;4888855;29;20087;-91
2023/03/22 04:37:37;;;;;;;14.77;5.75;;;;;;;9.28;96.84;100670.41;4890437;29;20044;-91
2023/03/22 04:40:06;;;;;;;14.20;5.53;;;;;;;9.23;96.45;100658.16;4891485;29;20017;-91
2023/03/22 04:42:32;;;;;;;14.32;6.10;;;;;;;9.21;96.42;100656.34;4880117;29;20052;-92
2023/03/22 04:45:02;;;;;;;11.43;5.43;;;;;;;9.23;96.70;100659.88;4879355;29;20060;-91
2023/03/22 04:47:27;;;;;;;12.13;5.38;;;;;;;9.22;96.44;100659.03;4889179;29;20032;-91
2023/03/22 04:49:53;;;;;;;14.40;5.82;;;;;;;9.18;96.53;100659.78;4879027;29;20372;-91
2023/03/22 04:52:18;;;;;;;14.65;6.07;;;;;;;9.17;96.35;100658.00;4880409;29;20443;-91
2023/03/22 04:54:46;;;;;;;13.05;5.93;;;;;;;9.18;96.65;100651.06;4880483;29;20116;-91
2023/03/22 04:57:11;;;;;;;13.02;5.50;;;;;;;9.21;96.42;100658.94;4881397;29;20037;-91
2023/03/22 04:59:36;;;;;;;14.50;5.70;;;;;;;9.19;96.69;100655.44;4878862;29;20028;-91
2023/03/22 05:02:02;;;;;;;16.23;6.82;;;;;;;9.18;96.65;100659.78;4890424;29;20136;-91
2023/03/22 05:04:27;;;;;;;12.55;5.75;;;;;;;9.18;96.80;100653.69;4879894;29;20036;-91
2023/03/22 05:06:53;;;;;;;13.90;6.05;;;;;;;9.17;96.79;100649.34;4879630;29;20047;-90
2023/03/22 05:09:18;;;;;;;13.60;5.82;;;;;;;9.17;96.65;100652.81;4879620;29;20072;-91
2023/03/22 05:11:44;;;;;;;17.02;5.85;;;;;;;9.18;96.74;100651.06;4872258;29;20044;-90
2023/03/22 05:14:12;;;;;;;14.98;5.50;;;;;;;9.16;97.00;100645.84;4890040;29;20514;-91
2023/03/22 05:16:39;;;;;;;16.25;5.40;;;;;;;9.16;96.67;100639.78;4880147;29;20032;-91
2023/03/22 05:19:12;;;;;;;12.00;5.35;;;;;;;9.16;96.32;100650.16;4876987;29;20025;-91
2023/03/22 05:21:44;;;;;;;12.48;5.32;;;;;;;9.15;96.41;100644.09;4879643;29;20021;-91
2023/03/22 05:24:09;;;;;;;11.95;5.07;;;;;;;9.17;96.17;100642.41;4880295;29;20040;-91
2023/03/22 05:26:36;;;;;;;13.07;5.10;;;;;;;9.15;96.19;100644.09;4883493;29;20035;-91
2023/03/22 05:29:04;;;;;;;11.73;5.28;;;;;;;9.15;95.83;100646.69;4895075;29;20487;-91
2023/03/22 05:31:33;;;;;;;9.95;4.70;;;;;;;9.14;96.03;100639.75;4883395;29;20492;-91
2023/03/22 05:34:00;;;;;;;12.20;5.25;;;;;;;9.12;95.93;100644.00;4881459;29;20044;-91
2023/03/22 05:36:28;;;;;;;12.35;4.72;;;;;;;9.13;95.81;100650.09;4879433;29;20488;-91
2023/03/22 05:38:55;;;;;;;11.15;4.43;;;;;;;9.14;95.60;100642.34;4882824;29;20682;-91
2023/03/22 05:41:20;;;;;;;11.20;4.68;;;;;;;9.14;95.47;100652.72;4893821;29;20043;-92
2023/03/22 05:43:46;;;;;;;13.90;4.82;;;;;;;9.14;95.32;100636.22;4881218;29;20036;-91
2023/03/22 05:46:14;;;;;;;10.13;4.60;;;;;;;9.14;95.27;100637.13;4881888;29;20586;-91
2023/03/22 05:48:43;;;;;;;13.05;4.80;;;;;;;9.13;95.23;100637.97;4898264;29;20123;-90
2023/03/22 05:51:12;;;;;;;9.88;4.00;;;;;;;9.14;94.90;100651.84;4882563;29;20064;-91
2023/03/22 05:53:38;;;;;;;10.23;4.00;;;;;;;9.13;94.98;100648.38;4891644;29;20035;-91
2023/03/22 05:56:04;;;;;;;9.85;4.15;;;;;;;9.14;94.87;100639.75;4878492;29;20111;-90
2023/03/22 05:58:39;;;;;;;8.02;3.95;;;;;;;9.16;94.71;100644.97;4893807;29;20108;-91
2023/03/22 06:01:15;;;;;;;10.30;4.00;;;;;;;9.17;94.91;100649.34;4899359;29;20623;-91
2023/03/22 06:03:41;;;;;;;13.38;4.22;;;;;;;9.17;95.04;100650.22;4894424;29;20036;-91
2023/03/22 06:06:09;;;;;;;14.15;4.63;;;;;;;9.18;94.36;100644.19;4892349;29;20035;-91
2023/03/22 06:08:38;;;;;;;11.68;3.90;;;;;;;9.18;94.51;100640.69;4880847;29;20111;-90
2023/03/22 06:11:04;;;;;;;13.27;3.80;;;;;;;9.18;94.35;100644.19;4879338;29;20123;-90
2023/03/22 06:13:30;;;;;;;13.35;4.32;;;;;;;9.18;94.11;100636.38;4878005;29;20496;-89
2023/03/22 06:15:59;;;;;;;13.90;4.05;;;;;;;9.18;94.36;100633.78;4881532;29;20795;-90
2023/03/22 06:18:24;;;;;;;;;;;;;;;9.26;93.90;100643.50;4883704;29;20025;-90
2023/03/22 06:20:52;;;;;;;10.52;3.72;;;;;;;9.23;94.08;100639.97;4893188;29;19919;-91
2023/03/22 06:23:20;;;;;;;11.60;3.90;;;;;;;9.24;93.86;100638.25;4880957;29;20080;-90
2023/03/22 06:25:46;;;;;;;11.00;3.97;;;;;;;9.23;94.11;100639.97;4892872;29;20036;-91
2023/03/22 06:28:14;;;;;;;11.38;4.20;;;;;;;9.26;93.98;100641.75;4881794;29;20033;-91
2023/03/22 06:30:39;;;;;;;10.60;4.25;;;;;;;9.29;94.03;100635.78;4881312;29;20035;-91
2023/03/22 06:33:05;;;;;;;14.23;4.10;;;;;;;9.30;94.34;100643.59;4892407;29;20032;-90
2023/03/22 06:35:35;;;;;;;11.77;4.35;;;;;;;9.32;94.30;100651.44;4892076;29;20040;-91
2023/03/22 06:38:01;;;;;;;11.38;5.20;;;;;;;9.37;93.61;100636.81;4882079;29;20039;-92
2023/03/22 06:40:26;;;;;;;9.32;4.32;;;;;;;9.39;93.83;100642.97;4892330;29;20058;-92
2023/03/22 06:42:53;;;;;;;11.95;4.18;;;;;;;9.42;94.06;100643.03;4892959;29;20044;-92
2023/03/22 06:45:19;;;;;;;11.98;4.80;;;;;;;9.43;94.03;100641.31;4880430;29;20025;-91
2023/03/22 06:47:49;;;;;;;11.18;4.63;;;;;;;9.44;94.15;100641.34;4893629;29;20036;-90
2023/03/22 06:50:17;;;;;;;10.43;4.47;;;;;;;9.48;93.68;100648.38;4879263;29;20036;-90
2023/03/22 06:52:42;;;;;;;11.35;4.88;;;;;;;9.50;93.24;100651.91;4893453;29;20162;-90
2023/03/22 06:55:08;;;;;;;13.68;4.45;;;;;;;9.53;93.79;100654.59;4880332;29;20681;-91
2023/03/22 06:57:33;;;;;;;12.85;5.30;;;;;;;9.56;93.84;100644.25;4880753;29;20037;-91
2023/03/22 06:59:59;;;;;;;13.20;5.20;;;;;;;9.62;93.74;100632.25;4892716;29;20020;-91
2023/03/22 07:02:24;;;;;;;16.30;5.20;;;;;;;9.68;93.27;100643.66;4881591;29;20032;-90
2023/03/22 07:04:54;;;;;;;14.48;5.03;;;;;;;9.75;93.60;100644.69;4892468;29;20033;-90
2023/03/22 07:07:19;;;;;;;14.02;5.45;;;;;;;9.82;92.59;100643.09;4893183;29;20069;-92
2023/03/22 07:09:45;;;;;;;13.18;5.10;;;;;;;9.83;92.19;100639.66;4881293;29;20044;-90
2023/03/22 07:12:13;;;;;;;13.48;5.57;;;;;;;9.83;92.11;100637.06;4900132;29;20028;-91
2023/03/22 07:14:38;;;;;;;11.88;5.40;;;;;;;9.83;91.75;100640.53;4900063;29;20032;-91
2023/03/22 07:17:04;;;;;;;13.38;5.82;;;;;;;9.84;90.98;100633.63;4884951;29;20110;-91
2023/03/22 07:19:30;;;;;;;11.50;5.15;;;;;;;9.84;91.34;100639.69;4881375;29;20523;-91
2023/03/22 07:21:56;;;;;;;17.58;5.70;;;;;;;9.84;90.83;100638.84;4884403;29;20032;-91
2023/03/22 07:24:24;;;;;;;13.50;5.53;;;;;;;9.88;90.97;100648.47;4899788;29;20087;-92
2023/03/22 07:26:50;;;;;;;11.65;5.63;;;;;;;9.91;91.10;100645.94;4901189;29;20064;-92
2023/03/22 07:29:15;;;;;;;18.52;6.38;;;;;;;9.94;90.54;100645.13;4901636;29;20028;-91
2023/03/22 07:31:44;;;;;;;13.98;6.05;;;;;;;9.96;90.36;100641.69;4900614;29;20487;-92
2023/03/22 07:34:10;;;;;;;12.77;6.00;;;;;;;10.01;90.01;100644.44;4898665;29;20040;-91
2023/03/22 07:36:37;;;;;;;13.55;5.53;;;;;;;10.05;89.71;100651.44;4899422;29;20087;-91
2023/03/22 07:39:04;;;;;;;13.25;5.90;;;;;;;10.09;89.38;100650.66;4883278;29;20139;-91
2023/03/22 07:41:33;;;;;;;15.73;6.65;;;;;;;10.11;89.60;100654.22;4898811;29;20084;-92
2023/03/22 07:43:58;;;;;;;14.10;6.27;;;;;;;10.16;89.55;100639.53;4882071;29;20037;-91
2023/03/22 07:46:26;;;;;;;16.98;6.15;;;;;;;10.20;88.66;100643.97;4882317;29;20032;-91
2023/03/22 07:48:54;;;;;;;12.90;5.75;;;;;;;10.24;87.94;100648.41;4899816;29;20521;-92
2023/03/22 07:51:25;;;;;;;14.27;5.97;;;;;;;10.29;89.13;100658.06;4880775;29;20513;-91
2023/03/22 07:53:52;;;;;;;12.82;5.78;;;;;;;10.34;87.68;100653.84;4897498;29;20036;-91
2023/03/22 07:56:21;;;;;;;12.52;5.43;;;;;;;10.39;86.68;100653.09;4881710;29;20398;-95
2023/03/22 07:58:46;;;;;;;10.85;5.00;;;;;;;10.43;86.59;100649.72;4900873;29;20031;-96
2023/03/22 08:01:14;;;;;;;15.90;5.40;;;;;;;10.45;86.18;100649.75;4886111;29;20024;-95
2023/03/22 08:03:39;;;;;;;11.93;4.53;;;;;;;10.48;85.85;100652.41;4881636;29;20495;-95
2023/03/22 08:06:06;;;;;;;12.20;4.80;;;;;;;10.50;86.70;100657.66;4884082;29;20123;-95
2023/03/22 08:08:33;;;;;;;10.48;4.65;;;;;;;10.50;85.63;100655.03;4883206;29;20672;-95
2023/03/22 08:11:00;;;;;;;13.73;4.07;;;;;;;10.53;85.05;100661.22;4896315;29;20056;-94
2023/03/22 08:13:34;;;;;;;12.55;4.20;;;;;;;10.55;85.00;100659.50;4878722;29;20041;-94
2023/03/22 08:16:00;;;;;;;10.82;3.40;;;;;;;10.57;84.37;100659.53;4886087;29;20040;-95
2023/03/22 08:18:25;;;;;;;10.73;3.45;;;;;;;10.65;83.76;100670.13;4882871;29;20095;-94
2023/03/22 08:20:56;;;;;;;11.07;3.83;;;;;;;10.68;83.52;100660.63;4890411;29;20028;-95
2023/03/22 08:23:25;;;;;;;9.48;3.65;;;;;;;10.68;84.97;100668.44;4883269;29;20032;-94
2023/03/22 08:25:51;;;;;;;10.63;3.47;;;;;;;10.70;82.71;100666.78;4878145;29;20029;-95
2023/03/22 08:28:19;;;;;;;11.45;3.40;;;;;;;10.70;82.55;100661.56;4884333;29;20094;-94
2023/03/22 08:30:49;;;;;;;13.18;3.53;;;;;;;10.73;84.04;100661.63;4884220;29;20028;-95
2023/03/22 08:33:15;;;;;;;9.25;3.25;;;;;;;10.86;83.96;100664.44;4879885;29;20032;-94
2023/03/22 08:35:44;;;;;;;13.73;3.47;;;;;;;10.99;82.94;100652.53;4878539;29;20502;-94
2023/03/22 08:38:09;;;;;;;9.23;3.58;;;;;;;11.05;83.03;100650.03;4880641;29;20036;-94
2023/03/22 08:40:35;;;;;;;11.88;3.53;;;;;;;11.09;82.76;100641.41;4883029;29;20386;-93
2023/03/22 08:43:00;;;;;;;11.18;3.35;;;;;;;11.13;82.81;100643.25;4894393;29;20028;-95
2023/03/22 08:45:26;;;;;;;9.00;3.45;;;;;;;11.18;82.46;100631.19;4884238;29;20039;-94
2023/03/22 08:47:58;;;;;;;9.45;3.58;;;;;;;11.23;81.64;100631.25;4882419;29;20044;-94
2023/03/22 08:50:24;;;;;;;11.07;3.20;;;;;;;11.25;82.68;100646.09;4882641;29;20033;-94
2023/03/22 08:52:52;;;;;;;11.48;3.85;;;;;;;11.30;82.27;100628.75;4882525;29;20065;-94
2023/03/22 08:55:18;;;;;;;10.90;3.67;;;;;;;11.35;81.37;100659.28;4880139;29;20033;-93
2023/03/22 08:57:48;;;;;;;14.27;3.63;;;;;;;11.37;80.93;100636.69;4887737;29;20517;-94
2023/03/22 09:00:16;;;;;;;11.73;3.60;;;;;;;11.41;80.52;100631.56;4899060;29;20028;-95
2023/03/22 09:02:41;;;;;;;9.73;3.25;;;;;;;11.42;80.62;100632.44;4887568;29;20047;-95
2023/03/22 09:05:07;;;;;;;12.77;3.20;;;;;;;11.47;80.81;100634.28;4887349;29;20036;-95
2023/03/22 09:07:33;;;;;;;11.65;3.22;;;;;;;11.52;80.14;100623.03;4888972;29;20120;-94
2023/03/22 09:10:01;;;;;;;11.98;3.80;;;;;;;11.55;80.19;100639.59;4887023;29;20064;-96
2023/03/22 09:12:28;;;;;;;13.48;3.28;;;;;;;11.59;79.30;100633.59;4886542;29;20039;-96
2023/03/22 09:14:56;;;;;;;9.25;3.50;;;;;;;11.60;79.80;100631.84;4887807;29;20044;-95
2023/03/22 09:17:24;;;;;;;9.45;3.33;;;;;;;11.66;79.65;100627.63;4888629;29;20033;-96
2023/03/22 09:19:52;;;;;;;10.27;3.10;;;;;;;11.71;78.86;100626.81;4880673;29;20024;-95
2023/03/22 09:22:20;;;;;;;12.50;3.40;;;;;;;11.78;77.68;100626.06;4882863;29;20119;-95
2023/03/22 09:24:45;;;;;;;11.85;3.10;;;;;;;11.82;78.27;100622.63;4900811;29;20032;-95
2023/03/22 09:27:13;;;;;;;10.05;3.15;;;;;;;11.86;77.33;100623.53;4889674;29;20040;-95
2023/03/22 09:29:38;;;;;;;8.25;3.03;;;;;;;11.87;77.14;100620.94;4886258;29;20040;-95
2023/03/22 09:32:04;;;;;;;11.25;3.20;;;;;;;11.87;77.97;100623.56;4899207;29;20486;-96
2023/03/22 09:34:33;;;;;;;11.07;2.80;;;;;;;11.89;76.80;100615.75;4890622;29;20055;-94
2023/03/22 09:37:01;;;;;;;8.63;2.78;;;;;;;11.87;76.99;100613.13;4889499;29;20025;-93
2023/03/22 09:39:27;;;;;;;12.27;3.20;;;;;;;11.86;77.17;100616.59;4895249;29;20107;-93
2023/03/22 09:42:01;;;;;;;9.63;2.60;;;;;;;11.87;77.30;100618.34;4883886;29;20024;-93
2023/03/22 09:44:35;;;;;;;9.35;2.85;;;;;;;11.87;78.18;100610.50;4893929;29;20493;-92
2023/03/22 09:47:21;;;;;;;12.40;3.35;;;;;;;11.85;78.46;100620.06;4897384;29;20029;-96
2023/03/22 09:49:58;;;;;;;10.70;3.10;;;;;;;11.80;76.67;100608.66;4875326;29;20033;-93
2023/03/22 09:52:24;;;;;;;6.75;2.60;;;;;;;11.76;77.29;100606.84;4895805;29;20087;-92
2023/03/22 09:54:49;;;;;;;9.55;2.70;;;;;;;11.75;76.60;100602.53;4883810;29;20036;-93
2023/03/22 09:57:31;;;;;;;12.55;2.53;;;;;;;11.73;76.87;100609.44;4895062;29;20037;-94
2023/03/22 10:00:13;;;;;;;10.40;2.70;;;;;;;11.71;77.10;100616.38;4895294;29;20534;-92
2023/03/22 10:03:02;;;;;;;9.30;3.05;;;;;;;11.69;76.81;100621.56;4894898;29;20508;-94
2023/03/22 10:05:39;;;;;;;11.35;3.10;;;;;;;11.66;77.25;100618.91;4887497;29;20028;-94
2023/03/22 10:08:21;;;;;;;8.13;2.63;;;;;;;11.63;77.66;100614.53;4865874;29;20115;-93
2023/03/22 10:10:54;;;;;;;8.50;2.40;;;;;;;11.61;76.58;100611.00;4904627;29;20573;-94
2023/03/22 10:13:33;;;;;;;10.18;2.78;;;;;;;11.60;76.99;100614.47;4888690;29;20030;-93
2023/03/22 10:16:01;;;;;;;;;;;;;;;11.61;78.65;100618.81;4888963;29;20043;-94
2023/03/22 10:18:32;;;;;;;10.75;2.30;;;;;;;11.54;77.37;100616.97;4888932;29;19983;-94
2023/03/22 10:21:05;;;;;;;9.38;2.75;;;;;;;11.51;77.96;100623.88;4905323;29;20050;-94
2023/03/22 10:24:00;;;;;;;9.75;2.55;;;;;;;11.45;79.15;100596.81;4890087;29;20020;-94
2023/03/22 10:26:36;;;;;;;7.25;2.60;;;;;;;11.35;79.49;100621.00;4897592;29;20025;-94
2023/03/22 10:29:08;;;;;;;10.88;3.42;;;;;;;11.28;80.12;100627.88;4888076;29;20031;-95
2023/03/22 10:31:33;;;;;;;11.00;3.05;;;;;;;11.25;80.21;100637.34;4889553;29;20882;-91
2023/03/22 10:34:29;;;;;;;10.77;3.25;;;;;;;11.24;81.91;100631.28;4899263;29;20092;-92
2023/03/22 10:37:05;;;;;;;13.07;3.20;;;;;;;11.18;84.10;100646.81;4901622;29;20059;-92
2023/03/22 10:39:34;;;;;;;8.27;2.80;;;;;;;11.09;85.32;100641.41;4902554;29;20029;-92
2023/03/22 10:42:05;;;;;;;12.20;3.30;;;;;;;10.98;85.91;100646.47;4896559;29;20378;-91
2023/03/22 10:44:37;;;;;;;10.23;3.00;;;;;;;10.90;88.22;100643.69;4899285;29;20032;-92
2023/03/22 10:47:06;;;;;;;10.15;3.00;;;;;;;10.85;88.96;100642.72;4901206;29;20482;-92
2023/03/22 10:49:47;;;;;;;10.90;3.00;;;;;;;10.82;90.25;100641.78;4884705;29;20414;-92
2023/03/22 10:52:30;;;;;;;12.05;3.00;;;;;;;10.81;90.47;100635.69;4882216;29;20029;-92
2023/03/22 10:54:59;;;;;;;8.55;3.05;;;;;;;10.82;91.40;100634.84;4882309;29;20032;-92
2023/03/22 10:57:24;;;;;;;10.57;3.72;;;;;;;10.82;91.69;100634.84;4884977;29;20041;-92
2023/03/22 11:00:07;;;;;;;11.20;3.45;;;;;;;10.82;91.49;100636.56;4882618;29;20047;-91
2023/03/22 11:02:36;;;;;;;7.07;3.13;;;;;;;10.79;92.15;100634.81;4883768;29;20140;-92
2023/03/22 11:05:04;;;;;;;9.85;3.10;;;;;;;10.72;92.04;100636.41;4883348;29;20478;-92
2023/03/22 11:07:42;;;;;;;9.27;3.20;;;;;;;10.65;93.54;100641.47;4882905;29;20523;-92
2023/03/22 11:10:08;;;;;;;8.33;3.67;;;;;;;10.61;95.16;100636.16;4895429;29;20068;-92
2023/03/22 11:12:45;;;;;;;9.95;3.42;;;;;;;10.59;94.97;100637.88;4881622;29;20288;-92
2023/03/22 11:15:25;;;;;;;6.75;3.10;;;;;;;10.56;94.59;100634.34;4882337;29;20491;-92
2023/03/22 11:17:53;;;;;;;7.43;3.40;;;;;;;10.53;95.03;100629.06;4891367;29;20028;-92
2023/03/22 11:20:19;;;;;;;11.30;3.38;;;;;;;10.58;94.64;100637.84;4881523;29;20073;-92
2023/03/22 11:22:50;;;;;;;9.48;3.53;;;;;;;10.59;96.00;100631.81;4880961;29;20072;-92
2023/03/22 11:25:27;;;;;;;9.88;3.42;;;;;;;10.61;95.38;100635.31;4892837;29;20025;-92
2023/03/22 11:28:20;;;;;;;10.55;3.55;;;;;;;10.65;95.65;100624.09;4892579;29;20044;-92
2023/03/22 11:31:10;;;;;;;9.20;3.25;;;;;;;10.69;94.39;100625.03;4881933;29;20119;-92
2023/03/22 11:33:39;;;;;;;11.13;3.58;;;;;;;10.69;95.04;100625.94;4881739;29;20628;-92
2023/03/22 11:36:16;;;;;;;9.65;3.30;;;;;;;10.72;94.52;100625.09;4880954;29;20036;-92